Time;durP1;ratioP1;P1;durP2;ratioP2;P2;SDS_P1;SDS_P2;PMS_P1;PMS_P2;Temp;Humidity;BMP_temperature;BMP_pressure;BME280_temperature;BME280_humidity;BME280_pressure;Samples;Min_cycle;Max_cycle;Signal;HPM_P1;HPM_P2
2022/06/06 00:00:01;;;;;;;;;18.50;17.50;;;;;17.37;74.05;99576.75;6285892;20;2827327;-61
2022/06/06 00:02:31;;;;;;;;;15.00;15.00;;;;;17.36;74.10;99568.78;6289400;20;2802870;-61
2022/06/06 00:04:59;;;;;;;;;15.00;15.00;;;;;17.23;73.90;99556.31;6287586;20;2806604;-55
2022/06/06 00:07:27;;;;;;;;;18.00;16.50;;;;;17.20;74.27;99543.03;6284198;20;2483618;-54
2022/06/06 00:09:56;;;;;;;;;18.50;16.00;;;;;17.12;74.71;99542.91;6284823;20;2837786;-60
2022/06/06 00:12:24;;;;;;;;;17.00;17.00;;;;;17.23;74.71;99537.34;6284354;20;2834681;-58
2022/06/06 00:14:53;;;;;;;;;17.00;17.00;;;;;17.33;73.58;99546.34;6285028;20;3560730;-59
2022/06/06 00:17:22;;;;;;;;;15.00;13.50;;;;;17.20;74.26;99548.47;6284802;20;2803470;-59
2022/06/06 00:19:50;;;;;;;;;19.00;17.00;;;;;17.18;73.97;99542.31;6282661;20;2824210;-52
2022/06/06 00:22:19;;;;;;;;;16.33;14.33;;;;;17.17;73.85;99540.63;6282550;20;3533690;-52
2022/06/06 00:24:47;;;;;;;;;14.67;14.67;;;;;17.17;73.79;99535.19;6282958;20;3531520;-56
2022/06/06 00:27:16;;;;;;;;;16.67;16.33;;;;;17.11;74.05;99538.44;6283463;20;3560676;-51
2022/06/06 00:29:45;;;;;;;;;16.50;15.00;;;;;17.24;73.43;99530.91;6284538;20;2816973;-54
2022/06/06 00:35:03;;;;;;;;;16.00;15.67;;;;;17.13;74.45;99530.19;6285493;20;3553368;-54
2022/06/06 00:37:37;;;;;;;;;16.00;16.00;;;;;17.16;74.45;99524.47;6316435;20;3564815;-55
2022/06/06 00:40:11;;;;;;;;;17.00;15.00;;;;;17.01;74.34;99521.28;6315434;20;3542144;-50
2022/06/06 00:42:42;;;;;;;;;15.00;14.00;;;;;17.18;73.80;99528.75;6284635;20;3529396;-59
2022/06/06 00:45:29;;;;;;;;;15.50;15.50;;;;;17.31;74.01;99531.22;6283122;20;2483723;-59
2022/06/06 00:48:16;;;;;;;;;18.67;18.00;;;;;17.37;73.52;99537.91;6283661;20;3567048;-59
2022/06/06 00:51:10;;;;;;;;;15.33;15.33;;;;;17.34;73.28;99550.75;6278479;20;3541063;-55
2022/06/06 00:53:51;;;;;;;;;17.50;16.00;;;;;17.42;72.99;99546.50;6280387;20;2487753;-53
2022/06/06 00:56:39;;;;;;;;;18.50;17.50;;;;;17.43;72.84;99542.78;6280213;20;2487923;-61
2022/06/06 00:59:20;;;;;;;;;17.00;17.00;;;;;17.26;74.97;99547.06;6282122;20;2483634;-56
2022/06/06 01:01:50;;;;;;;;;15.00;15.00;;;;;17.20;75.00;99545.75;6285921;20;2810843;-61
2022/06/06 01:04:25;;;;;;;;;17.00;17.00;;;;;16.93;77.39;99550.97;6312649;20;3563777;-50
2022/06/06 01:06:56;;;;;;;;;17.50;16.00;;;;;16.89;76.51;99551.25;6281935;20;2829441;-52
2022/06/06 01:09:26;;;;;;;;;19.00;17.00;;;;;16.92;77.17;99562.81;6277917;20;2491943;-59
2022/06/06 01:12:02;;;;;;;;;14.33;13.67;;;;;16.59;78.49;99553.97;6283020;20;3537724;-59
2022/06/06 01:15:04;;;;;;;;;16.67;15.67;;;;;16.52;79.18;99547.38;6280355;20;3552791;-61
2022/06/06 01:18:06;;;;;;;;;17.00;17.00;;;;;16.40;81.25;99539.34;6281989;20;2826360;-54
2022/06/06 01:21:21;;;;;;;;;16.00;16.00;;;;;16.28;80.55;99542.28;6280283;20;3567003;-51
2022/06/06 01:24:19;;;;;;;;;19.00;17.67;;;;;16.29;81.49;99552.97;6282223;20;2830465;-53
2022/06/06 01:27:29;;;;;;;;;19.00;19.00;;;;;16.15;82.26;99554.16;6314436;20;2844055;-56
2022/06/06 01:30:14;;;;;;;;;18.33;18.33;;;;;16.05;84.04;99555.09;6282878;20;2833713;-53
2022/06/06 01:32:54;;;;;;;;;18.00;18.00;;;;;16.21;83.63;99561.75;6316337;20;3555473;-53
2022/06/06 01:35:36;;;;;;;;;17.33;17.33;;;;;16.35;83.62;99571.41;6316681;20;3569023;-61
2022/06/06 01:38:05;;;;;;;;;16.00;16.00;;;;;16.32;81.10;99568.94;6313848;20;3556483;-52
2022/06/06 01:41:09;;;;;;;;;17.00;17.00;;;;;16.78;78.18;99575.75;6277840;20;2491948;-60
2022/06/06 01:43:49;;;;;;;;;19.00;18.50;;;;;16.65;79.56;99588.66;6278208;20;2483762;-52
2022/06/06 01:46:29;;;;;;;;;17.00;17.00;;;;;16.69;79.35;99587.38;6277732;20;2485712;-61
2022/06/06 01:48:59;;;;;;;;;18.50;18.50;;;;;16.60;79.70;99582.78;6279162;20;2829603;-59
2022/06/06 01:51:31;;;;;;;;;14.00;13.00;;;;;16.85;78.03;99590.50;6283527;20;2798223;-49
2022/06/06 01:54:00;;;;;;;;;19.00;17.00;;;;;16.93;77.95;99594.34;6281300;20;2825286;-60
2022/06/06 01:56:38;;;;;;;;;17.00;17.00;;;;;16.86;77.99;99597.63;6282083;20;2483590;-60
2022/06/06 01:59:07;;;;;;;;;19.00;18.00;;;;;16.87;78.46;99603.91;6282501;20;2833918;-61
2022/06/06 02:01:35;;;;;;;;;18.00;16.00;;;;;17.02;78.09;99621.53;6276598;20;2483596;-52
2022/06/06 02:04:03;;;;;;;;;18.00;18.00;;;;;17.06;77.75;99624.81;6277987;20;2483649;-60
2022/06/06 02:06:31;;;;;;;;;16.00;16.00;;;;;17.25;77.16;99626.75;6278665;20;3559598;-51
2022/06/06 02:09:00;;;;;;;;;17.00;17.00;;;;;17.25;77.31;99638.47;6276092;20;2836882;-61
2022/06/06 02:11:28;;;;;;;;;20.00;18.00;;;;;17.30;76.34;99635.34;6276513;20;2483665;-54
2022/06/06 02:13:56;;;;;;;;;18.00;18.00;;;;;17.28;76.01;99659.88;6276611;20;2820111;-60
2022/06/06 02:16:25;;;;;;;;;15.00;15.00;;;;;17.25;76.16;99676.44;6281244;20;3538744;-60
2022/06/06 02:18:54;;;;;;;;;19.67;18.00;;;;;17.36;75.52;99683.63;6279092;20;2491995;-60
2022/06/06 02:21:23;;;;;;;;;16.50;16.00;;;;;17.39;75.27;99698.78;6310511;20;2829467;-61
2022/06/06 02:23:52;;;;;;;;;17.67;16.00;;;;;17.39;75.29;99698.78;6280720;20;3558566;-59
2022/06/06 02:26:20;;;;;;;;;17.00;14.50;;;;;17.38;75.31;99703.34;6281921;20;2489889;-52
2022/06/06 02:28:47;;;;;;;;;13.50;13.00;;;;;17.33;75.95;99706.47;6283290;20;2489975;-61
2022/06/06 02:31:16;;;;;;;;;17.00;16.00;;;;;17.29;76.44;99699.59;6280287;20;2492177;-57
2022/06/06 02:33:45;;;;;;;;;17.67;13.67;;;;;17.29;76.43;99704.16;6282699;20;3546081;-61
2022/06/06 02:36:14;;;;;;;;;16.33;16.33;;;;;17.32;75.71;99707.47;6281693;20;2833619;-59
2022/06/06 02:38:42;;;;;;;;;14.67;14.00;;;;;17.42;76.38;99701.22;6311675;20;3543988;-60
2022/06/06 02:41:11;;;;;;;;;14.00;14.00;;;;;17.58;74.98;99704.25;6278713;20;2814941;-59
2022/06/06 02:43:43;;;;;;;;;13.67;13.67;;;;;17.67;74.51;99703.44;6281106;20;3539842;-59
2022/06/06 02:46:13;;;;;;;;;14.67;14.67;;;;;17.66;74.25;99709.84;6280681;20;3537892;-61
2022/06/06 02:48:42;;;;;;;;;14.67;14.67;;;;;17.64;74.35;99717.28;6311641;20;3538777;-61
2022/06/06 02:51:10;;;;;;;;;16.00;16.00;;;;;17.61;74.90;99717.53;6274644;20;2487770;-62
2022/06/06 02:53:40;;;;;;;;;15.67;14.67;;;;;17.60;75.15;99723.13;6280867;20;3538848;-62
2022/06/06 02:56:09;;;;;;;;;15.00;15.00;;;;;17.55;75.37;99720.81;6276235;20;3542957;-60
2022/06/06 02:58:37;;;;;;;;;16.00;15.33;;;;;17.52;75.25;99713.81;6284058;20;2824210;-60
2022/06/06 03:01:10;;;;;;;;;15.67;13.67;;;;;17.65;75.08;99710.00;6306337;20;3529420;-50
2022/06/06 03:03:41;;;;;;;;;15.67;15.67;;;;;17.66;75.91;99685.41;6280953;20;3551304;-54
2022/06/06 03:06:48;;;;;;;;;17.00;14.00;;;;;17.49;76.96;99661.66;6280935;20;3542952;-61
2022/06/06 03:10:20;;;;;;;;;12.00;12.00;;;;;17.28;78.57;99626.47;6282582;20;2788826;-55
2022/06/06 03:13:37;;;;;;;;;15.00;15.00;;;;;17.19;78.20;99584.72;6280169;20;2819035;-60
2022/06/06 03:23:39;;;;;;;;;15.00;15.00;;;;;17.83;71.99;99645.03;6277226;20;2485752;-50
2022/06/06 03:26:51;;;;;;;;;17.00;17.00;;;;;18.07;70.87;99667.19;6280201;20;2483639;-52
2022/06/06 03:29:51;;;;;;;;;14.50;14.50;;;;;18.13;70.78;99682.91;6284256;20;2489847;-55
2022/06/06 03:33:23;;;;;;;;;16.50;16.50;;;;;18.19;70.34;99684.19;6283054;20;2826380;-52
2022/06/06 03:36:19;;;;;;;;;16.00;16.00;;;;;18.32;71.22;99694.78;6281501;20;3554458;-60
2022/06/06 03:39:06;;;;;;;;;18.50;17.00;;;;;18.24;71.54;99694.66;6285307;20;2831541;-49
2022/06/06 03:42:56;;;;;;;;;13.00;12.00;;;;;18.21;71.57;99696.63;6290423;20;2787779;-59
2022/06/06 03:46:01;;;;;;;;;16.86;15.86;;;;;18.15;73.03;99708.09;6288591;20;3547146;-60
2022/06/06 03:49:39;;;;;;;;;15.00;14.00;;;;;18.15;72.19;99701.81;6308999;20;2809539;-53
2022/06/06 03:52:58;;;;;;;;;14.67;14.33;;;;;18.26;73.68;99698.94;6305089;20;3537829;-53
2022/06/06 03:55:41;;;;;;;;;18.33;18.33;;;;;18.38;71.45;99697.78;6305318;20;2483575;-59
2022/06/06 03:58:16;;;;;;;;;17.00;17.00;;;;;18.19;73.25;99698.66;6336503;20;2483759;-51
2022/06/06 04:00:47;;;;;;;;;14.00;14.00;;;;;18.17;75.35;99681.63;6305334;20;2793399;-58
2022/06/06 04:03:16;;;;;;;;;17.00;17.00;;;;;18.54;72.07;99667.28;6305559;20;2828386;-60
2022/06/06 04:05:45;;;;;;;;;17.50;17.50;;;;;18.61;73.08;99665.69;6306380;20;2483606;-51
2022/06/06 04:08:14;;;;;;;;;18.33;17.33;;;;;18.36;74.20;99669.03;6307695;20;2831218;-50
2022/06/06 04:11:02;;;;;;;;;14.00;14.00;;;;;18.24;73.92;99668.31;6339103;20;3533842;-48
2022/06/06 04:13:55;;;;;;;;;15.67;15.67;;;;;18.33;74.13;99666.63;6304150;20;3550322;-54
2022/06/06 04:16:55;;;;;;;;;16.00;16.00;;;;;18.45;72.26;99653.72;6309468;20;2483587;-59
2022/06/06 04:19:53;;;;;;;;;15.50;15.00;;;;;18.71;72.23;99662.94;6308139;20;2492382;-60
2022/06/06 04:22:47;;;;;;;;;16.00;16.00;;;;;18.57;72.03;99664.28;6304890;20;2491964;-60
2022/06/06 04:25:30;;;;;;;;;17.00;15.00;;;;;18.67;71.98;99674.25;6307597;20;2816966;-48
2022/06/06 04:28:43;;;;;;;;;16.67;16.67;;;;;18.43;72.11;99665.59;6306626;20;3562753;-60
2022/06/06 04:31:41;;;;;;;;;14.00;14.00;;;;;18.74;71.69;99672.69;6307474;20;3526314;-51
2022/06/06 04:34:45;;;;;;;;;16.00;16.00;;;;;18.70;71.63;99676.72;6307730;20;2831555;-59
2022/06/06 04:37:57;;;;;;;;;18.00;16.00;;;;;18.84;70.99;99670.81;6338030;20;2487759;-52
2022/06/06 04:40:45;;;;;;;;;14.00;14.00;;;;;19.11;70.63;99677.31;6308977;20;2804547;-52
2022/06/06 04:43:27;;;;;;;;;13.67;13.67;;;;;19.20;69.17;99676.44;6307601;20;3523196;-61
2022/06/06 04:46:21;;;;;;;;;16.00;13.00;;;;;19.34;68.84;99672.34;6301799;20;2801326;-58
2022/06/06 04:48:52;;;;;;;;;11.00;11.00;;;;;19.29;69.01;99665.47;6304914;20;3518113;-59
2022/06/06 04:51:22;;;;;;;;;14.67;13.67;;;;;19.29;69.78;99659.19;6336165;20;3539843;-61
2022/06/06 04:53:57;;;;;;;;;14.50;14.00;;;;;19.16;69.81;99653.22;6310743;20;2782571;-62
2022/06/06 04:56:27;;;;;;;;;13.67;13.67;;;;;19.12;69.39;99647.25;6289395;20;3520153;-51
2022/06/06 04:58:59;;;;;;;;;15.00;15.00;;;;;18.83;70.13;99626.44;6280322;20;3547107;-55
2022/06/06 05:01:29;;;;;;;;;14.33;14.33;;;;;18.98;69.87;99629.53;6282314;20;3528355;-53
2022/06/06 05:03:56;;;;;;;;;17.00;17.00;;;;;18.91;71.17;99625.72;6313363;20;2483692;-58
2022/06/06 05:06:57;;;;;;;;;15.67;15.67;;;;;19.05;70.00;99611.59;6286064;20;3548167;-59
2022/06/06 05:10:05;;;;;;;;;14.00;14.00;;;;;19.25;70.65;99603.34;6282436;20;3534632;-51
2022/06/06 05:13:23;;;;;;;;;17.00;15.33;;;;;19.35;69.91;99609.56;6284678;20;3543967;-58
2022/06/06 05:16:15;;;;;;;;;16.00;16.00;;;;;19.19;70.06;99620.25;6281842;20;2483596;-59
2022/06/06 05:19:43;;;;;;;;;14.50;14.50;;;;;19.59;69.22;99625.34;6285224;20;2804445;-55
2022/06/06 05:22:47;;;;;;;;;16.67;14.33;;;;;19.70;68.43;99640.63;6283018;20;3538868;-58
2022/06/06 05:25:36;;;;;;;;;19.00;19.00;;;;;19.79;67.91;99664.22;6277866;20;2483763;-61
2022/06/06 05:28:14;;;;;;;;;18.00;16.00;;;;;19.98;68.48;99682.28;6312788;20;2831510;-52
2022/06/06 05:31:19;;;;;;;;;14.00;14.00;;;;;19.90;67.10;99693.97;6282515;20;3537764;-53
2022/06/06 05:34:17;;;;;;;;;13.00;13.00;;;;;20.34;68.20;99699.50;6284891;20;2806504;-54
2022/06/06 05:37:32;;;;;;;;;17.00;14.00;;;;;20.14;67.57;99687.91;6310880;20;2810728;-51
2022/06/06 05:40:38;;;;;;;;;17.50;16.00;;;;;20.02;68.21;99693.75;6280242;20;2827492;-60
2022/06/06 05:43:53;;;;;;;;;18.00;15.00;;;;;20.17;68.13;99697.66;6283044;20;2488833;-55
2022/06/06 05:46:38;;;;;;;;;17.00;17.00;;;;;20.41;66.28;99699.75;6281894;20;2483671;-59
2022/06/06 05:50:14;;;;;;;;;17.50;16.00;;;;;20.29;68.08;99720.94;6283662;20;2825276;-59
2022/06/06 05:53:26;;;;;;;;;17.00;17.00;;;;;20.48;67.20;99716.31;6283879;20;3561709;-61
2022/06/06 05:56:41;;;;;;;;;15.00;15.00;;;;;20.56;66.53;99714.56;6279265;20;2483659;-53
2022/06/06 06:00:07;;;;;;;;;19.00;17.67;;;;;20.67;68.42;99716.19;6286155;20;3571049;-62
2022/06/06 06:03:24;;;;;;;;;17.00;17.00;;;;;21.00;66.74;99710.94;6281941;20;2833590;-53
2022/06/06 06:06:28;;;;;;;;;18.00;17.00;;;;;21.08;64.66;99719.19;6283015;20;2837844;-57
2022/06/06 06:09:18;;;;;;;;;16.00;15.00;;;;;21.26;63.11;99728.16;6281159;20;2817472;-56
2022/06/06 06:12:13;;;;;;;;;15.00;15.00;;;;;21.70;62.04;99724.50;6279029;20;2821113;-59
2022/06/06 06:15:19;;;;;;;;;14.00;14.00;;;;;21.88;63.13;99732.56;6284356;20;2491943;-61
2022/06/06 06:17:53;;;;;;;;;16.00;14.00;;;;;22.27;62.19;99730.09;6314272;20;2810798;-62
2022/06/06 06:20:35;;;;;;;;;14.33;13.67;;;;;23.04;58.53;99729.81;6278889;20;2489847;-60
2022/06/06 06:23:11;;;;;;;;;13.67;13.67;;;;;23.42;55.55;99730.91;6313845;20;2484027;-55
2022/06/06 06:25:42;;;;;;;;;15.00;14.00;;;;;23.17;57.58;99734.72;6318128;20;3534660;-53
2022/06/06 06:28:13;;;;;;;;;12.33;12.00;;;;;23.74;57.26;99731.81;6315066;20;3524362;-53
2022/06/06 06:31:31;;;;;;;;;16.00;16.00;;;;;24.22;54.89;99734.47;6288266;20;3558959;-62
2022/06/06 06:34:20;;;;;;;;;15.00;14.33;;;;;23.85;55.31;99736.06;6323291;20;3539965;-60
2022/06/06 06:37:44;;;;;;;;;15.33;15.33;;;;;23.95;55.19;99735.84;6317398;20;2483591;-61
2022/06/06 06:40:52;;;;;;;;;15.50;14.50;;;;;24.40;55.22;99731.44;6313088;20;2814990;-62
2022/06/06 06:43:47;;;;;;;;;13.00;13.00;;;;;24.29;56.16;99732.72;6280980;20;3531645;-62
2022/06/06 06:46:46;;;;;;;;;13.00;13.00;;;;;23.72;56.00;99731.16;6285533;20;2808661;-60
2022/06/06 06:49:40;;;;;;;;;15.33;14.00;;;;;23.79;56.22;99734.03;6316274;20;3533584;-63
2022/06/06 06:52:32;;;;;;;;;14.33;12.67;;;;;24.03;56.88;99730.31;6316076;20;3533681;-61
2022/06/06 06:55:42;;;;;;;;;14.00;14.00;;;;;23.84;56.21;99731.63;6312480;20;2483615;-57
2022/06/06 06:59:18;;;;;;;;;17.67;14.00;;;;;23.53;56.94;99723.31;6313262;20;2483608;-58
2022/06/06 07:08:32;;;;;;;;;7.00;7.00;;;;;24.11;54.67;99733.00;6314579;20;2739856;-56
2022/06/06 07:11:32;;;;;;;;;15.67;14.33;;;;;23.70;55.85;99735.94;6313301;20;3546118;-52
2022/06/06 07:14:58;;;;;;;;;16.33;14.67;;;;;23.30;55.24;99731.44;6312962;20;2483654;-58
2022/06/06 07:17:33;;;;;;;;;19.33;16.67;;;;;24.22;54.77;99739.97;6313367;20;3564847;-60
2022/06/06 07:20:11;;;;;;;;;16.00;14.00;;;;;24.25;54.48;99736.84;6273815;20;2811857;-61
2022/06/06 07:23:02;;;;;;;;;13.00;12.00;;;;;23.72;55.57;99736.63;6278177;20;3522094;-60
2022/06/06 07:25:40;;;;;;;;;14.67;13.67;;;;;23.61;56.59;99731.50;6310437;20;2483681;-59
2022/06/06 07:28:14;;;;;;;;;15.00;13.00;;;;;24.45;55.59;99737.25;6312408;20;3533639;-59
2022/06/06 07:31:12;;;;;;;;;12.00;12.00;;;;;25.33;51.52;99730.28;6314322;20;3520113;-53
2022/06/06 07:34:26;;;;;;;;;12.00;12.00;;;;;24.44;53.78;99735.53;6312647;20;2483610;-62
2022/06/06 07:37:17;;;;;;;;;12.67;12.67;;;;;24.98;53.55;99733.53;6312887;20;3522184;-63
2022/06/06 07:39:59;;;;;;;;;10.00;10.00;;;;;24.85;52.56;99730.56;6335424;20;2778452;-60
2022/06/06 07:43:03;;;;;;;;;12.33;12.33;;;;;24.87;53.67;99735.88;6280716;20;2483581;-59
2022/06/06 07:46:06;;;;;;;;;12.00;12.00;;;;;25.14;52.72;99739.91;6311289;20;2736799;-60
2022/06/06 07:49:05;;;;;;;;;12.33;12.00;;;;;25.34;51.00;99740.25;6308788;20;3521068;-52
2022/06/06 07:52:20;;;;;;;;;15.00;14.00;;;;;25.50;52.08;99755.72;6277649;20;2483634;-51
2022/06/06 07:55:14;;;;;;;;;12.00;12.00;;;;;25.87;51.56;99751.16;6312672;20;3539874;-62
2022/06/06 07:58:27;;;;;;;;;9.67;9.67;;;;;26.28;49.28;99756.97;6316240;20;2773291;-62
2022/06/06 08:01:22;;;;;;;;;13.33;13.33;;;;;25.95;49.94;99749.16;6309102;20;2483581;-61
2022/06/06 08:04:08;;;;;;;;;12.33;11.00;;;;;26.18;49.83;99759.19;6313037;20;3515968;-63
2022/06/06 08:07:14;;;;;;;;;11.00;10.00;;;;;25.92;50.42;99760.53;6307629;20;2789956;-59
2022/06/06 08:10:40;;;;;;;;;12.33;12.33;;;;;25.31;52.61;99759.88;6314019;20;3530509;-53
2022/06/06 08:14:14;;;;;;;;;16.33;14.00;;;;;26.51;50.10;99767.78;6307186;20;2483689;-55
2022/06/06 08:16:57;;;;;;;;;16.67;16.00;;;;;25.82;50.58;99759.97;6314826;20;3564863;-47
2022/06/06 08:19:49;;;;;;;;;13.00;13.00;;;;;26.43;50.36;99765.16;6276168;20;2483591;-57
2022/06/06 08:22:19;;;;;;;;;12.50;12.50;;;;;26.88;50.24;99761.19;6309125;20;2794893;-60
2022/06/06 08:24:56;;;;;;;;;15.67;15.67;;;;;27.20;47.77;99760.81;6281644;20;3547161;-57
2022/06/06 08:27:34;;;;;;;;;14.00;14.00;;;;;26.88;48.59;99755.69;6308696;20;3539872;-58
2022/06/06 08:30:05;;;;;;;;;15.00;14.00;;;;;25.71;51.43;99755.78;6311065;20;2816995;-59
2022/06/06 08:32:35;;;;;;;;;17.00;15.00;;;;;26.02;51.11;99761.09;6286420;20;3552305;-59
2022/06/06 08:35:04;;;;;;;;;12.33;12.00;;;;;25.69;52.01;99754.28;6315667;20;3523222;-59
2022/06/06 08:38:13;;;;;;;;;13.00;12.33;;;;;25.56;50.70;99755.78;6317964;20;3527480;-59
2022/06/06 08:41:19;;;;;;;;;12.00;12.00;;;;;25.65;49.96;99752.97;6315498;20;2483642;-60
2022/06/06 08:44:02;;;;;;;;;16.00;16.00;;;;;25.66;51.00;99754.66;6317273;20;2824262;-52
2022/06/06 08:47:02;;;;;;;;;15.00;13.00;;;;;26.30;50.18;99763.09;6285482;20;2483660;-58
2022/06/06 08:53:02;;;;;;;;;18.00;16.00;;;;;26.30;49.16;99757.59;6316185;20;2827411;-60
2022/06/06 08:56:18;;;;;;;;;13.00;13.00;;;;;26.03;50.64;99764.69;6284311;20;2802460;-59
2022/06/06 08:59:25;;;;;;;;;14.67;14.67;;;;;26.29;49.14;99766.91;6285998;20;3528487;-52
2022/06/06 09:02:24;;;;;;;;;15.33;14.00;;;;;26.22;49.86;99746.72;6320707;20;3541941;-60
2022/06/06 09:05:45;;;;;;;;;14.67;14.67;;;;;27.02;48.03;99750.28;6290945;20;2483697;-53
2022/06/06 09:08:56;;;;;;;;;14.00;14.00;;;;;27.85;46.90;99759.56;6322772;20;3532524;-56
2022/06/06 09:12:04;;;;;;;;;11.67;11.67;;;;;28.20;43.91;99774.16;6320482;20;2483633;-59
2022/06/06 09:15:13;;;;;;;;;13.67;13.67;;;;;27.57;45.79;99760.47;6321696;20;2483590;-59
2022/06/06 09:18:24;;;;;;;;;13.50;13.50;;;;;27.75;45.76;99757.16;6318946;20;2796118;-59
2022/06/06 09:21:27;;;;;;;;;16.50;15.50;;;;;28.34;43.92;99760.38;6280288;20;2827473;-60
2022/06/06 09:24:37;;;;;;;;;12.00;12.00;;;;;27.70;45.05;99748.66;6286286;20;2483625;-59
2022/06/06 09:28:00;;;;;;;;;14.67;13.00;;;;;27.46;45.42;99751.88;6312967;20;3537738;-58
2022/06/06 09:31:02;;;;;;;;;8.00;7.00;;;;;27.45;44.49;99742.75;6284124;20;2754459;-58
2022/06/06 09:34:26;;;;;;;;;12.67;12.67;;;;;27.25;44.57;99744.53;6319972;20;2483609;-58
2022/06/06 09:37:08;;;;;;;;;12.67;12.00;;;;;27.65;43.75;99747.53;6321175;20;2483580;-52
2022/06/06 09:40:23;;;;;;;;;13.00;11.67;;;;;28.56;42.86;99745.38;6323227;20;2483635;-59
2022/06/06 09:43:32;;;;;;;;;13.67;13.67;;;;;28.14;44.78;99744.59;6318480;20;2483606;-59
2022/06/06 09:46:24;;;;;;;;;13.00;13.00;;;;;28.00;44.48;99740.09;6319034;20;2483647;-59
2022/06/06 09:49:40;;;;;;;;;11.00;11.00;;;;;27.87;44.02;99735.38;6322713;20;3510727;-59
2022/06/06 09:52:51;;;;;;;;;13.67;13.67;;;;;27.54;43.72;99740.69;6318281;20;2483697;-61
2022/06/06 09:59:57;;;;;;;;;11.33;11.33;;;;;28.13;44.11;99742.91;6286665;20;3532591;-58
2022/06/06 10:03:36;;;;;;;;;11.00;11.00;;;;;27.54;45.59;99738.81;6284922;20;3514829;-48
2022/06/06 10:06:54;;;;;;;;;13.67;12.00;;;;;27.43;43.57;99735.75;6283418;20;3514906;-59
2022/06/06 10:09:56;;;;;;;;;11.33;10.00;;;;;27.94;43.36;99724.38;6317656;20;3521637;-49
2022/06/06 10:13:37;;;;;;;;;10.00;9.00;;;;;28.17;42.36;99733.16;6294670;20;2762788;-47
2022/06/06 10:17:04;;;;;;;;;9.67;8.00;;;;;28.48;40.23;99723.47;6326398;20;2750265;-59
2022/06/06 10:19:54;;;;;;;;;9.33;8.33;;;;;28.36;39.77;99714.09;6321204;20;2747172;-53
2022/06/06 10:23:13;;;;;;;;;6.00;6.00;;;;;28.23;39.27;99715.75;6326108;20;2748317;-59
2022/06/06 10:26:22;;;;;;;;;9.00;9.00;;;;;28.24;40.56;99716.59;6324199;20;2741939;-55
2022/06/06 10:29:25;;;;;;;;;9.33;9.33;;;;;27.72;41.29;99713.41;6315483;20;3491099;-58
2022/06/06 10:32:33;;;;;;;;;10.00;9.00;;;;;27.41;40.37;99715.78;6315890;20;2758726;-59
2022/06/06 10:36:00;;;;;;;;;8.00;8.00;;;;;28.73;39.91;99715.44;6326358;20;2739830;-60
2022/06/06 10:39:07;;;;;;;;;9.67;9.67;;;;;29.07;39.76;99716.31;6319678;20;2483581;-59
2022/06/06 10:42:24;;;;;;;;;10.00;10.00;;;;;28.23;38.54;99704.72;6313545;20;3511674;-59
2022/06/06 10:45:12;;;;;;;;;9.00;9.00;;;;;28.35;40.42;99701.31;6316882;20;2746097;-60
2022/06/06 10:48:08;;;;;;;;;8.67;7.00;;;;;28.75;39.41;99709.69;6322340;20;2751294;-60
2022/06/06 10:51:40;;;;;;;;;8.00;8.00;;;;;28.23;41.78;99698.34;6325287;20;2738804;-61
2022/06/06 10:55:02;;;;;;;;;11.00;10.67;;;;;28.58;40.74;99696.28;6321721;20;2791027;-59
2022/06/06 10:58:18;;;;;;;;;9.33;9.33;;;;;28.01;42.16;99689.34;6325934;20;2757604;-60
2022/06/06 11:01:20;;;;;;;;;10.33;9.33;;;;;28.77;39.38;99688.22;6315304;20;3491868;-61
2022/06/06 11:04:30;;;;;;;;;10.00;10.00;;;;;28.50;40.33;99699.25;6317733;20;2798295;-59
2022/06/06 11:07:57;;;;;;;;;8.00;8.00;;;;;28.66;38.91;99686.94;6314578;20;2744014;-59
2022/06/06 11:11:01;;;;;;;;;10.00;10.00;;;;;28.66;40.89;99685.03;6315817;20;3505442;-59
2022/06/06 11:13:42;;;;;;;;;9.00;9.00;;;;;28.06;39.69;99686.81;6284550;20;2748159;-60
2022/06/06 11:16:45;;;;;;;;;10.00;10.00;;;;;28.59;38.70;99692.44;6321237;20;2788853;-60
2022/06/06 11:19:48;;;;;;;;;9.00;9.00;;;;;28.70;38.76;99692.88;6322842;20;2750271;-58
2022/06/06 11:22:43;;;;;;;;;7.00;7.00;;;;;28.91;39.03;99684.38;6317380;20;2742964;-59
2022/06/06 11:25:20;;;;;;;;;10.00;10.00;;;;;29.37;38.38;99683.47;6311000;20;3511735;-51
2022/06/06 11:28:19;;;;;;;;;10.67;10.67;;;;;29.13;38.75;99676.72;6314077;20;3520008;-59
2022/06/06 11:31:16;;;;;;;;;12.33;11.33;;;;;29.70;38.93;99682.53;6314197;20;3532611;-60
2022/06/06 11:34:18;;;;;;;;;10.00;10.00;;;;;29.54;39.65;99684.72;6319343;20;3507533;-59
2022/06/06 11:37:40;;;;;;;;;9.67;9.67;;;;;29.43;39.08;99690.06;6319711;20;2779437;-58
2022/06/06 11:40:36;;;;;;;;;10.00;8.00;;;;;29.07;36.82;99683.97;6320212;20;2759773;-58
2022/06/06 11:43:48;;;;;;;;;9.00;7.00;;;;;29.03;37.43;99684.56;6316272;20;2748234;-60
2022/06/06 11:47:13;;;;;;;;;7.67;7.67;;;;;28.29;38.02;99680.06;6318226;20;2752356;-60
2022/06/06 11:50:30;;;;;;;;;11.00;11.00;;;;;28.77;38.44;99677.16;6314785;20;2786937;-56
2022/06/06 11:53:43;;;;;;;;;10.00;8.00;;;;;28.69;38.56;99663.56;6314943;20;2772105;-56
2022/06/06 11:57:07;;;;;;;;;10.00;10.00;;;;;28.40;38.90;99658.19;6314377;20;3510698;-58
2022/06/06 12:00:06;;;;;;;;;8.00;8.00;;;;;28.99;39.31;99659.28;6315648;20;2748163;-56
2022/06/06 12:03:03;;;;;;;;;8.00;8.00;;;;;29.00;37.59;99660.97;6318954;20;2738795;-59
2022/06/06 12:06:01;;;;;;;;;8.00;7.00;;;;;28.79;36.73;99658.44;6318048;20;2749354;-61
2022/06/06 12:09:17;;;;;;;;;16.67;15.33;;;;;28.92;37.86;99652.91;6318001;20;2483583;-60
2022/06/06 12:12:32;;;;;;;;;8.00;7.00;;;;;28.51;37.38;99645.69;6330197;20;2754406;-60
2022/06/06 12:15:49;;;;;;;;;7.00;7.00;;;;;28.54;37.93;99627.84;6322493;20;2733708;-63
2022/06/06 12:19:05;;;;;;;;;6.00;6.00;;;;;28.57;37.74;99622.75;6343665;20;2733667;-64
2022/06/06 12:22:29;;;;;;;;;9.00;9.00;;;;;28.55;35.35;99624.88;6288678;20;2748338;-54
2022/06/06 12:26:03;;;;;;;;;8.33;8.33;;;;;28.74;36.15;99636.13;6323970;20;2747322;-59
2022/06/06 12:29:18;;;;;;;;;6.67;6.67;;;;;28.77;36.69;99627.41;6319708;20;2744057;-62
2022/06/06 12:32:11;;;;;;;;;5.67;5.67;;;;;29.02;36.45;99622.91;6323583;20;2729407;-61
2022/06/06 12:35:09;;;;;;;;;6.67;6.67;;;;;28.33;36.18;99621.47;6321537;20;2739841;-58
2022/06/06 12:38:02;;;;;;;;;9.00;8.00;;;;;28.84;36.32;99620.81;6318729;20;2744142;-61
2022/06/06 12:41:07;;;;;;;;;9.33;8.67;;;;;28.52;36.42;99608.75;6318490;20;3464873;-59
2022/06/06 12:43:53;;;;;;;;;8.00;8.00;;;;;28.33;36.02;99602.13;6320106;20;2742966;-61
2022/06/06 12:46:42;;;;;;;;;12.33;9.33;;;;;28.59;36.23;99603.19;6314550;20;3488890;-61
2022/06/06 12:49:44;;;;;;;;;6.00;6.00;;;;;29.04;35.63;99601.47;6320742;20;2742086;-59
2022/06/06 12:53:00;;;;;;;;;8.00;6.33;;;;;28.66;33.59;99604.88;6323188;20;2736792;-61
2022/06/06 12:56:26;;;;;;;;;8.67;7.67;;;;;28.84;33.61;99595.94;6319828;20;2743046;-60
2022/06/06 12:59:42;;;;;;;;;5.00;5.00;;;;;28.78;35.13;99588.53;6321229;20;2731942;-60
2022/06/06 13:02:51;;;;;;;;;8.00;8.00;;;;;28.80;34.79;99593.81;6318159;20;2744037;-55
2022/06/06 13:05:37;;;;;;;;;6.33;6.33;;;;;28.82;33.53;99587.00;6320167;20;2739854;-58
2022/06/06 13:08:54;;;;;;;;;9.00;9.00;;;;;28.53;33.84;99590.25;6319958;20;2746118;-58
2022/06/06 13:11:49;;;;;;;;;6.67;5.00;;;;;29.00;34.00;99579.97;6319891;20;2739904;-59
2022/06/06 13:15:01;;;;;;;;;7.67;7.67;;;;;28.88;33.76;99582.53;6319923;20;2750250;-63
2022/06/06 13:18:15;;;;;;;;;7.33;7.33;;;;;29.40;35.39;99583.44;6319134;20;2733594;-61
2022/06/06 13:20:58;;;;;;;;;8.00;8.00;;;;;28.55;36.70;99580.69;6317990;20;2756671;-61
2022/06/06 13:24:07;;;;;;;;;8.00;8.00;;;;;28.84;36.33;99584.03;6318716;20;2744078;-63
2022/06/06 13:27:15;;;;;;;;;7.00;7.00;;;;;28.44;35.26;99581.34;6330817;20;2739891;-62
2022/06/06 13:29:45;;;;;;;;;7.67;7.67;;;;;28.95;35.00;99585.28;6318212;20;2744045;-62